sensor_id;sensor_type;location;lat;lon;timestamp;temperature;humidity
33139;DHT22;19501;50.948;5.316;2023-02-20T00:00:30;6.00;99.90
33139;DHT22;19501;50.948;5.316;2023-02-20T00:02:56;6.00;99.90
33139;DHT22;19501;50.948;5.316;2023-02-20T00:05:21;6.10;99.90
33139;DHT22;19501;50.948;5.316;2023-02-20T00:07:49;6.00;99.90
33139;DHT22;19501;50.948;5.316;2023-02-20T00:10:16;6.00;99.90
33139;DHT22;19501;50.948;5.316;2023-02-20T00:12:42;6.00;99.90
33139;DHT22;19501;50.948;5.316;2023-02-20T00:15:08;6.00;99.90
33139;DHT22;19501;50.948;5.316;2023-02-20T00:17:34;5.90;99.90
33139;DHT22;19501;50.948;5.316;2023-02-20T00:20:00;5.90;99.90
33139;DHT22;19501;50.948;5.316;2023-02-20T00:22:27;5.90;99.90
33139;DHT22;19501;50.948;5.316;2023-02-20T00:24:52;5.90;99.90
33139;DHT22;19501;50.948;5.316;2023-02-20T00:27:18;5.90;99.90
33139;DHT22;19501;50.948;5.316;2023-02-20T00:29:45;5.90;99.90
33139;DHT22;19501;50.948;5.316;2023-02-20T00:32:11;5.90;99.90
33139;DHT22;19501;50.948;5.316;2023-02-20T00:34:37;5.90;99.90
33139;DHT22;19501;50.948;5.316;2023-02-20T00:37:03;6.00;99.90
33139;DHT22;19501;50.948;5.316;2023-02-20T00:39:30;6.00;99.90
33139;DHT22;19501;50.948;5.316;2023-02-20T00:41:58;6.00;99.90
33139;DHT22;19501;50.948;5.316;2023-02-20T00:44:24;6.00;99.90
33139;DHT22;19501;50.948;5.316;2023-02-20T00:46:49;6.00;99.90
33139;DHT22;19501;50.948;5.316;2023-02-20T00:49:15;6.00;99.90
33139;DHT22;19501;50.948;5.316;2023-02-20T00:51:41;5.90;99.90
33139;DHT22;19501;50.948;5.316;2023-02-20T00:54:06;6.00;99.90
33139;DHT22;19501;50.948;5.316;2023-02-20T00:56:32;6.00;99.90
33139;DHT22;19501;50.948;5.316;2023-02-20T00:58:58;6.00;99.90
33139;DHT22;19501;50.948;5.316;2023-02-20T01:01:23;5.90;99.90
33139;DHT22;19501;50.948;5.316;2023-02-20T01:03:49;6.00;99.90
33139;DHT22;19501;50.948;5.316;2023-02-20T01:06:15;5.90;99.90
33139;DHT22;19501;50.948;5.316;2023-02-20T01:08:41;5.90;99.90
33139;DHT22;19501;50.948;5.316;2023-02-20T01:11:07;6.00;99.90
33139;DHT22;19501;50.948;5.316;2023-02-20T01:13:32;5.90;99.90
33139;DHT22;19501;50.948;5.316;2023-02-20T01:15:58;5.90;99.90
33139;DHT22;19501;50.948;5.316;2023-02-20T01:18:24;5.90;99.90
33139;DHT22;19501;50.948;5.316;2023-02-20T01:20:52;5.90;99.90
33139;DHT22;19501;50.948;5.316;2023-02-20T01:23:18;5.90;99.90
33139;DHT22;19501;50.948;5.316;2023-02-20T01:25:43;5.90;99.90
33139;DHT22;19501;50.948;5.316;2023-02-20T01:28:09;5.90;99.90
33139;DHT22;19501;50.948;5.316;2023-02-20T01:30:35;5.90;99.90
33139;DHT22;19501;50.948;5.316;2023-02-20T01:33:00;5.90;99.90
33139;DHT22;19501;50.948;5.316;2023-02-20T01:35:26;5.80;99.90
33139;DHT22;19501;50.948;5.316;2023-02-20T01:37:57;5.90;99.90
33139;DHT22;19501;50.948;5.316;2023-02-20T01:40:24;5.80;99.90
33139;DHT22;19501;50.948;5.316;2023-02-20T01:42:50;5.80;99.90
33139;DHT22;19501;50.948;5.316;2023-02-20T01:47:44;5.90;99.90
33139;DHT22;19501;50.948;5.316;2023-02-20T01:50:10;6.00;99.90
33139;DHT22;19501;50.948;5.316;2023-02-20T01:52:40;6.00;99.90
33139;DHT22;19501;50.948;5.316;2023-02-20T01:55:14;6.00;99.90
33139;DHT22;19501;50.948;5.316;2023-02-20T01:57:47;5.90;99.90
33139;DHT22;19501;50.948;5.316;2023-02-20T02:00:17;6.00;99.90
33139;DHT22;19501;50.948;5.316;2023-02-20T02:03:00;6.00;99.90
33139;DHT22;19501;50.948;5.316;2023-02-20T02:05:27;6.00;99.90
33139;DHT22;19501;50.948;5.316;2023-02-20T02:07:54;6.00;99.90
33139;DHT22;19501;50.948;5.316;2023-02-20T02:10:25;6.00;99.90
33139;DHT22;19501;50.948;5.316;2023-02-20T02:12:54;6.00;99.90
33139;DHT22;19501;50.948;5.316;2023-02-20T02:15:22;6.00;99.90
33139;DHT22;19501;50.948;5.316;2023-02-20T02:18:02;5.90;99.90
33139;DHT22;19501;50.948;5.316;2023-02-20T02:24:00;5.90;99.90
33139;DHT22;19501;50.948;5.316;2023-02-20T02:35:13;6.00;99.90
33139;DHT22;19501;50.948;5.316;2023-02-20T02:40:56;6.00;99.90
33139;DHT22;19501;50.948;5.316;2023-02-20T02:43:28;6.00;99.90
33139;DHT22;19501;50.948;5.316;2023-02-20T02:46:08;5.90;99.90
33139;DHT22;19501;50.948;5.316;2023-02-20T02:48:43;5.80;99.90
33139;DHT22;19501;50.948;5.316;2023-02-20T02:51:15;5.70;99.90
33139;DHT22;19501;50.948;5.316;2023-02-20T02:53:43;5.70;99.90
33139;DHT22;19501;50.948;5.316;2023-02-20T02:56:39;5.60;99.90
33139;DHT22;19501;50.948;5.316;2023-02-20T02:59:07;5.60;99.90
33139;DHT22;19501;50.948;5.316;2023-02-20T03:01:38;5.50;99.90
33139;DHT22;19501;50.948;5.316;2023-02-20T03:04:07;5.60;99.90
33139;DHT22;19501;50.948;5.316;2023-02-20T03:06:38;5.60;99.90
33139;DHT22;19501;50.948;5.316;2023-02-20T03:09:14;5.60;99.90
33139;DHT22;19501;50.948;5.316;2023-02-20T03:11:41;5.70;99.90
33139;DHT22;19501;50.948;5.316;2023-02-20T03:14:15;5.80;99.90
33139;DHT22;19501;50.948;5.316;2023-02-20T03:19:32;5.80;99.90
33139;DHT22;19501;50.948;5.316;2023-02-20T03:22:01;5.90;99.90
33139;DHT22;19501;50.948;5.316;2023-02-20T03:24:32;6.00;99.90
33139;DHT22;19501;50.948;5.316;2023-02-20T03:27:18;6.00;99.90
33139;DHT22;19501;50.948;5.316;2023-02-20T03:29:47;6.10;99.90
33139;DHT22;19501;50.948;5.316;2023-02-20T03:32:15;6.10;99.90
33139;DHT22;19501;50.948;5.316;2023-02-20T03:35:02;6.10;99.90
33139;DHT22;19501;50.948;5.316;2023-02-20T03:37:49;6.10;99.90
33139;DHT22;19501;50.948;5.316;2023-02-20T03:40:33;6.10;99.90
33139;DHT22;19501;50.948;5.316;2023-02-20T03:43:19;6.10;99.90
33139;DHT22;19501;50.948;5.316;2023-02-20T03:46:05;6.10;99.90
33139;DHT22;19501;50.948;5.316;2023-02-20T03:48:47;6.10;99.90
33139;DHT22;19501;50.948;5.316;2023-02-20T03:51:14;6.10;99.90
33139;DHT22;19501;50.948;5.316;2023-02-20T03:53:58;6.10;99.90
33139;DHT22;19501;50.948;5.316;2023-02-20T03:56:30;6.00;99.90
33139;DHT22;19501;50.948;5.316;2023-02-20T03:59:22;6.00;99.90
33139;DHT22;19501;50.948;5.316;2023-02-20T04:01:53;6.10;99.90
33139;DHT22;19501;50.948;5.316;2023-02-20T04:04:25;6.00;99.90
33139;DHT22;19501;50.948;5.316;2023-02-20T04:06:52;6.00;99.90
33139;DHT22;19501;50.948;5.316;2023-02-20T04:09:25;6.10;99.90
33139;DHT22;19501;50.948;5.316;2023-02-20T04:11:56;6.00;99.90
33139;DHT22;19501;50.948;5.316;2023-02-20T04:14:25;6.00;99.90
33139;DHT22;19501;50.948;5.316;2023-02-20T04:16:56;6.00;99.90
33139;DHT22;19501;50.948;5.316;2023-02-20T04:19:23;5.90;99.90
33139;DHT22;19501;50.948;5.316;2023-02-20T04:21:54;5.90;99.90
33139;DHT22;19501;50.948;5.316;2023-02-20T04:24:42;5.80;99.90
33139;DHT22;19501;50.948;5.316;2023-02-20T04:27:09;5.80;99.90
33139;DHT22;19501;50.948;5.316;2023-02-20T04:29:36;5.70;99.90
33139;DHT22;19501;50.948;5.316;2023-02-20T04:32:01;5.80;99.90
33139;DHT22;19501;50.948;5.316;2023-02-20T04:34:27;5.70;99.90
33139;DHT22;19501;50.948;5.316;2023-02-20T04:37:08;5.80;99.90
33139;DHT22;19501;50.948;5.316;2023-02-20T04:39:35;5.90;99.90
33139;DHT22;19501;50.948;5.316;2023-02-20T04:42:00;5.90;99.90
33139;DHT22;19501;50.948;5.316;2023-02-20T04:44:26;6.00;99.90
33139;DHT22;19501;50.948;5.316;2023-02-20T04:47:09;6.00;99.90
33139;DHT22;19501;50.948;5.316;2023-02-20T04:49:36;5.90;99.90
33139;DHT22;19501;50.948;5.316;2023-02-20T04:52:01;6.00;99.90
33139;DHT22;19501;50.948;5.316;2023-02-20T04:54:27;6.00;99.90
33139;DHT22;19501;50.948;5.316;2023-02-20T04:56:53;6.10;99.90
33139;DHT22;19501;50.948;5.316;2023-02-20T04:59:19;6.10;99.90
33139;DHT22;19501;50.948;5.316;2023-02-20T05:01:45;6.20;99.90
33139;DHT22;19501;50.948;5.316;2023-02-20T05:04:15;6.20;99.90
33139;DHT22;19501;50.948;5.316;2023-02-20T05:06:44;6.20;99.90
33139;DHT22;19501;50.948;5.316;2023-02-20T05:09:10;6.20;99.90
33139;DHT22;19501;50.948;5.316;2023-02-20T05:11:37;6.30;99.90
33139;DHT22;19501;50.948;5.316;2023-02-20T05:14:03;6.30;99.90
33139;DHT22;19501;50.948;5.316;2023-02-20T05:16:29;6.40;99.90
33139;DHT22;19501;50.948;5.316;2023-02-20T05:18:54;6.40;99.90
33139;DHT22;19501;50.948;5.316;2023-02-20T05:21:20;6.40;99.90
33139;DHT22;19501;50.948;5.316;2023-02-20T05:24:05;6.30;99.90
33139;DHT22;19501;50.948;5.316;2023-02-20T05:26:31;6.30;99.90
33139;DHT22;19501;50.948;5.316;2023-02-20T05:28:56;6.40;99.90
33139;DHT22;19501;50.948;5.316;2023-02-20T05:31:22;6.40;99.90
33139;DHT22;19501;50.948;5.316;2023-02-20T05:33:48;6.30;99.90
33139;DHT22;19501;50.948;5.316;2023-02-20T05:36:14;6.40;99.90
33139;DHT22;19501;50.948;5.316;2023-02-20T05:38:40;6.50;99.90
33139;DHT22;19501;50.948;5.316;2023-02-20T05:41:13;6.60;99.90
33139;DHT22;19501;50.948;5.316;2023-02-20T05:43:41;6.50;99.90
33139;DHT22;19501;50.948;5.316;2023-02-20T05:46:07;6.40;99.90
33139;DHT22;19501;50.948;5.316;2023-02-20T05:48:32;6.50;99.90
33139;DHT22;19501;50.948;5.316;2023-02-20T05:50:58;6.50;99.90
33139;DHT22;19501;50.948;5.316;2023-02-20T05:53:27;6.50;99.90
33139;DHT22;19501;50.948;5.316;2023-02-20T05:55:53;6.40;99.90
33139;DHT22;19501;50.948;5.316;2023-02-20T05:58:19;6.40;99.90
33139;DHT22;19501;50.948;5.316;2023-02-20T06:00:44;6.50;99.90
33139;DHT22;19501;50.948;5.316;2023-02-20T06:03:10;6.60;99.90
33139;DHT22;19501;50.948;5.316;2023-02-20T06:05:36;6.50;99.90
33139;DHT22;19501;50.948;5.316;2023-02-20T06:08:02;6.50;99.90
33139;DHT22;19501;50.948;5.316;2023-02-20T06:10:29;6.50;99.90
33139;DHT22;19501;50.948;5.316;2023-02-20T06:12:55;6.50;99.90
33139;DHT22;19501;50.948;5.316;2023-02-20T06:15:20;6.60;99.90
33139;DHT22;19501;50.948;5.316;2023-02-20T06:17:46;6.60;99.90
33139;DHT22;19501;50.948;5.316;2023-02-20T06:20:12;6.70;99.90
33139;DHT22;19501;50.948;5.316;2023-02-20T06:22:37;6.70;99.90
33139;DHT22;19501;50.948;5.316;2023-02-20T06:25:03;6.70;99.90
33139;DHT22;19501;50.948;5.316;2023-02-20T06:27:29;6.70;99.90
33139;DHT22;19501;50.948;5.316;2023-02-20T06:29:55;6.60;99.90
33139;DHT22;19501;50.948;5.316;2023-02-20T06:32:20;6.70;99.90
33139;DHT22;19501;50.948;5.316;2023-02-20T06:34:46;6.60;99.90
33139;DHT22;19501;50.948;5.316;2023-02-20T06:37:12;6.70;99.90
33139;DHT22;19501;50.948;5.316;2023-02-20T06:39:38;6.70;99.90
33139;DHT22;19501;50.948;5.316;2023-02-20T06:42:05;6.60;99.90
33139;DHT22;19501;50.948;5.316;2023-02-20T06:44:30;6.60;99.90
33139;DHT22;19501;50.948;5.316;2023-02-20T06:46:58;6.60;99.90
33139;DHT22;19501;50.948;5.316;2023-02-20T06:49:24;6.60;99.90
33139;DHT22;19501;50.948;5.316;2023-02-20T06:51:52;6.70;99.90
33139;DHT22;19501;50.948;5.316;2023-02-20T06:54:18;6.80;99.90
33139;DHT22;19501;50.948;5.316;2023-02-20T06:56:46;6.80;99.90
33139;DHT22;19501;50.948;5.316;2023-02-20T06:59:15;6.70;99.90
33139;DHT22;19501;50.948;5.316;2023-02-20T07:01:42;6.80;99.90
33139;DHT22;19501;50.948;5.316;2023-02-20T07:04:24;6.80;99.90
33139;DHT22;19501;50.948;5.316;2023-02-20T07:06:53;6.90;99.90
33139;DHT22;19501;50.948;5.316;2023-02-20T07:09:19;6.90;99.90
33139;DHT22;19501;50.948;5.316;2023-02-20T07:11:45;7.00;99.90
33139;DHT22;19501;50.948;5.316;2023-02-20T07:14:12;6.90;99.90
33139;DHT22;19501;50.948;5.316;2023-02-20T07:16:38;6.80;99.90
33139;DHT22;19501;50.948;5.316;2023-02-20T07:19:03;6.90;99.90
33139;DHT22;19501;50.948;5.316;2023-02-20T07:21:29;7.00;99.90
33139;DHT22;19501;50.948;5.316;2023-02-20T07:23:55;7.00;99.90
33139;DHT22;19501;50.948;5.316;2023-02-20T07:26:23;7.00;99.90
33139;DHT22;19501;50.948;5.316;2023-02-20T07:28:50;6.90;99.90
33139;DHT22;19501;50.948;5.316;2023-02-20T07:31:16;6.90;99.90
33139;DHT22;19501;50.948;5.316;2023-02-20T07:33:41;7.00;99.90
33139;DHT22;19501;50.948;5.316;2023-02-20T07:36:09;7.00;99.90
33139;DHT22;19501;50.948;5.316;2023-02-20T07:38:35;7.00;99.90
33139;DHT22;19501;50.948;5.316;2023-02-20T07:41:00;6.90;99.90
33139;DHT22;19501;50.948;5.316;2023-02-20T07:43:26;7.00;99.90
33139;DHT22;19501;50.948;5.316;2023-02-20T07:45:51;7.10;99.90
33139;DHT22;19501;50.948;5.316;2023-02-20T07:48:17;7.10;99.90
33139;DHT22;19501;50.948;5.316;2023-02-20T07:50:43;7.10;99.90
33139;DHT22;19501;50.948;5.316;2023-02-20T07:53:13;7.10;99.90
33139;DHT22;19501;50.948;5.316;2023-02-20T07:55:39;7.10;99.90
33139;DHT22;19501;50.948;5.316;2023-02-20T07:58:04;7.10;99.90
33139;DHT22;19501;50.948;5.316;2023-02-20T08:00:30;7.20;99.90
33139;DHT22;19501;50.948;5.316;2023-02-20T08:02:56;7.30;99.90
33139;DHT22;19501;50.948;5.316;2023-02-20T08:05:23;7.40;99.90
33139;DHT22;19501;50.948;5.316;2023-02-20T08:07:50;7.30;99.90
33139;DHT22;19501;50.948;5.316;2023-02-20T08:10:18;7.30;99.90
33139;DHT22;19501;50.948;5.316;2023-02-20T08:12:45;7.40;99.90
33139;DHT22;19501;50.948;5.316;2023-02-20T08:15:13;7.50;99.90
33139;DHT22;19501;50.948;5.316;2023-02-20T08:17:39;7.60;99.90
33139;DHT22;19501;50.948;5.316;2023-02-20T08:20:06;7.50;99.90
33139;DHT22;19501;50.948;5.316;2023-02-20T08:22:32;7.50;99.90
33139;DHT22;19501;50.948;5.316;2023-02-20T08:24:58;7.60;99.90
33139;DHT22;19501;50.948;5.316;2023-02-20T08:27:24;7.70;99.90
33139;DHT22;19501;50.948;5.316;2023-02-20T08:29:50;7.70;99.90
33139;DHT22;19501;50.948;5.316;2023-02-20T08:32:15;7.80;99.90
33139;DHT22;19501;50.948;5.316;2023-02-20T08:34:41;7.70;99.90
33139;DHT22;19501;50.948;5.316;2023-02-20T08:37:07;7.60;99.90
33139;DHT22;19501;50.948;5.316;2023-02-20T08:39:34;7.70;99.90
33139;DHT22;19501;50.948;5.316;2023-02-20T08:42:00;7.80;99.90
33139;DHT22;19501;50.948;5.316;2023-02-20T08:44:26;7.90;99.90
33139;DHT22;19501;50.948;5.316;2023-02-20T08:46:52;7.90;99.90
33139;DHT22;19501;50.948;5.316;2023-02-20T08:49:18;8.00;99.90
33139;DHT22;19501;50.948;5.316;2023-02-20T08:51:47;8.10;99.90
33139;DHT22;19501;50.948;5.316;2023-02-20T08:54:17;8.10;99.90
33139;DHT22;19501;50.948;5.316;2023-02-20T08:56:42;8.00;99.90
33139;DHT22;19501;50.948;5.316;2023-02-20T08:59:08;8.00;99.90
33139;DHT22;19501;50.948;5.316;2023-02-20T09:01:34;8.00;99.90
33139;DHT22;19501;50.948;5.316;2023-02-20T09:04:00;7.90;99.90
33139;DHT22;19501;50.948;5.316;2023-02-20T09:06:27;8.00;99.90
33139;DHT22;19501;50.948;5.316;2023-02-20T09:08:53;8.00;99.90
33139;DHT22;19501;50.948;5.316;2023-02-20T09:11:19;8.00;99.90
33139;DHT22;19501;50.948;5.316;2023-02-20T09:13:47;8.00;99.90
33139;DHT22;19501;50.948;5.316;2023-02-20T09:16:18;8.00;99.90
33139;DHT22;19501;50.948;5.316;2023-02-20T09:18:44;8.10;99.90
33139;DHT22;19501;50.948;5.316;2023-02-20T09:21:11;8.30;99.90
33139;DHT22;19501;50.948;5.316;2023-02-20T09:23:38;8.20;99.90
33139;DHT22;19501;50.948;5.316;2023-02-20T09:26:04;8.20;99.90
33139;DHT22;19501;50.948;5.316;2023-02-20T09:28:30;8.10;99.90
33139;DHT22;19501;50.948;5.316;2023-02-20T09:30:58;8.20;99.90
33139;DHT22;19501;50.948;5.316;2023-02-20T09:33:26;8.40;99.90
33139;DHT22;19501;50.948;5.316;2023-02-20T09:35:52;8.40;99.90
33139;DHT22;19501;50.948;5.316;2023-02-20T09:38:22;8.50;99.90
33139;DHT22;19501;50.948;5.316;2023-02-20T09:40:55;8.40;99.90
33139;DHT22;19501;50.948;5.316;2023-02-20T09:46:08;8.40;99.90
33139;DHT22;19501;50.948;5.316;2023-02-20T09:51:24;8.50;99.90
33139;DHT22;19501;50.948;5.316;2023-02-20T09:54:12;8.50;99.90
33139;DHT22;19501;50.948;5.316;2023-02-20T09:56:57;8.50;99.90
33139;DHT22;19501;50.948;5.316;2023-02-20T09:59:37;8.60;99.90
33139;DHT22;19501;50.948;5.316;2023-02-20T10:05:24;8.40;99.90
33139;DHT22;19501;50.948;5.316;2023-02-20T10:07:51;8.20;99.90
33139;DHT22;19501;50.948;5.316;2023-02-20T10:10:31;8.30;99.90
33139;DHT22;19501;50.948;5.316;2023-02-20T10:16:24;8.40;99.90
33139;DHT22;19501;50.948;5.316;2023-02-20T10:19:16;8.50;99.90
33139;DHT22;19501;50.948;5.316;2023-02-20T10:24:22;8.60;99.90
33139;DHT22;19501;50.948;5.316;2023-02-20T10:26:56;8.60;99.90
33139;DHT22;19501;50.948;5.316;2023-02-20T10:29:26;8.60;99.90
33139;DHT22;19501;50.948;5.316;2023-02-20T10:32:03;8.40;99.90
33139;DHT22;19501;50.948;5.316;2023-02-20T10:34:59;8.40;99.90
33139;DHT22;19501;50.948;5.316;2023-02-20T10:37:26;8.40;99.90
33139;DHT22;19501;50.948;5.316;2023-02-20T10:42:43;8.60;99.90
33139;DHT22;19501;50.948;5.316;2023-02-20T10:45:26;8.60;99.90
33139;DHT22;19501;50.948;5.316;2023-02-20T10:48:13;8.50;99.90
33139;DHT22;19501;50.948;5.316;2023-02-20T10:50:49;8.50;99.90
33139;DHT22;19501;50.948;5.316;2023-02-20T10:56:27;8.70;99.90
33139;DHT22;19501;50.948;5.316;2023-02-20T10:59:25;8.60;99.90
33139;DHT22;19501;50.948;5.316;2023-02-20T11:01:55;8.40;99.90
33139;DHT22;19501;50.948;5.316;2023-02-20T11:04:34;8.30;99.90
33139;DHT22;19501;50.948;5.316;2023-02-20T11:07:06;8.40;99.90
33139;DHT22;19501;50.948;5.316;2023-02-20T11:09:33;8.50;99.90
33139;DHT22;19501;50.948;5.316;2023-02-20T11:11:59;8.70;99.90
33139;DHT22;19501;50.948;5.316;2023-02-20T11:14:45;8.50;99.90
33139;DHT22;19501;50.948;5.316;2023-02-20T11:17:17;8.60;99.90
33139;DHT22;19501;50.948;5.316;2023-02-20T11:19:55;8.60;99.90
33139;DHT22;19501;50.948;5.316;2023-02-20T11:25:20;8.60;99.90
33139;DHT22;19501;50.948;5.316;2023-02-20T11:27:53;8.60;99.90
33139;DHT22;19501;50.948;5.316;2023-02-20T11:30:26;8.70;99.90
33139;DHT22;19501;50.948;5.316;2023-02-20T11:35:37;8.70;99.90
33139;DHT22;19501;50.948;5.316;2023-02-20T11:43:26;8.80;99.90
33139;DHT22;19501;50.948;5.316;2023-02-20T11:54:20;8.90;99.90
33139;DHT22;19501;50.948;5.316;2023-02-20T12:01:51;8.80;99.90
33139;DHT22;19501;50.948;5.316;2023-02-20T12:04:24;8.80;99.90
33139;DHT22;19501;50.948;5.316;2023-02-20T12:06:51;8.90;99.90
33139;DHT22;19501;50.948;5.316;2023-02-20T12:09:21;8.90;99.90
33139;DHT22;19501;50.948;5.316;2023-02-20T12:11:49;8.80;99.90
33139;DHT22;19501;50.948;5.316;2023-02-20T12:14:17;8.80;99.90
33139;DHT22;19501;50.948;5.316;2023-02-20T12:27:42;8.90;99.90
33139;DHT22;19501;50.948;5.316;2023-02-20T12:36:17;8.90;99.90
33139;DHT22;19501;50.948;5.316;2023-02-20T12:46:38;9.00;99.90
33139;DHT22;19501;50.948;5.316;2023-02-20T12:49:16;9.00;99.90
33139;DHT22;19501;50.948;5.316;2023-02-20T13:00:00;9.10;99.90
33139;DHT22;19501;50.948;5.316;2023-02-20T13:02:34;9.10;99.90
33139;DHT22;19501;50.948;5.316;2023-02-20T13:05:02;9.20;99.90
33139;DHT22;19501;50.948;5.316;2023-02-20T13:07:36;9.20;99.90
33139;DHT22;19501;50.948;5.316;2023-02-20T13:10:14;9.20;99.90
33139;DHT22;19501;50.948;5.316;2023-02-20T13:12:40;9.10;99.90
33139;DHT22;19501;50.948;5.316;2023-02-20T13:18:31;9.20;99.90
33139;DHT22;19501;50.948;5.316;2023-02-20T13:21:09;9.30;99.90
33139;DHT22;19501;50.948;5.316;2023-02-20T13:23:38;9.40;99.90
33139;DHT22;19501;50.948;5.316;2023-02-20T13:28:52;9.30;99.90
33139;DHT22;19501;50.948;5.316;2023-02-20T13:31:24;9.10;99.90
33139;DHT22;19501;50.948;5.316;2023-02-20T13:36:36;9.30;99.90
33139;DHT22;19501;50.948;5.316;2023-02-20T13:55:41;9.40;99.90
33139;DHT22;19501;50.948;5.316;2023-02-20T13:57:50;9.40;99.90
33139;DHT22;19501;50.948;5.316;2023-02-20T14:02:53;9.50;99.90
33139;DHT22;19501;50.948;5.316;2023-02-20T14:05:31;9.60;99.90
33139;DHT22;19501;50.948;5.316;2023-02-20T14:07:57;9.60;99.90
33139;DHT22;19501;50.948;5.316;2023-02-20T14:10:49;9.60;99.90
33139;DHT22;19501;50.948;5.316;2023-02-20T14:13:18;9.40;99.90
33139;DHT22;19501;50.948;5.316;2023-02-20T14:15:56;9.50;99.90
33139;DHT22;19501;50.948;5.316;2023-02-20T14:18:30;9.50;99.90
33139;DHT22;19501;50.948;5.316;2023-02-20T14:23:37;9.40;99.90
33139;DHT22;19501;50.948;5.316;2023-02-20T14:26:23;9.50;99.90
33139;DHT22;19501;50.948;5.316;2023-02-20T14:28:52;9.60;99.90
33139;DHT22;19501;50.948;5.316;2023-02-20T14:31:39;9.40;99.90
33139;DHT22;19501;50.948;5.316;2023-02-20T14:34:54;9.40;99.90
33139;DHT22;19501;50.948;5.316;2023-02-20T14:37:26;9.40;99.90
33139;DHT22;19501;50.948;5.316;2023-02-20T14:40:08;9.40;99.90
33139;DHT22;19501;50.948;5.316;2023-02-20T14:42:42;9.40;99.90
33139;DHT22;19501;50.948;5.316;2023-02-20T14:45:14;9.40;99.90
33139;DHT22;19501;50.948;5.316;2023-02-20T14:47:54;9.50;99.90
33139;DHT22;19501;50.948;5.316;2023-02-20T14:50:23;9.60;99.90
33139;DHT22;19501;50.948;5.316;2023-02-20T14:55:40;9.40;99.90
33139;DHT22;19501;50.948;5.316;2023-02-20T14:58:16;9.50;99.90
33139;DHT22;19501;50.948;5.316;2023-02-20T15:00:43;9.60;99.90
33139;DHT22;19501;50.948;5.316;2023-02-20T15:03:20;9.60;99.90
33139;DHT22;19501;50.948;5.316;2023-02-20T15:05:47;9.60;99.90
33139;DHT22;19501;50.948;5.316;2023-02-20T15:08:22;9.70;99.90
33139;DHT22;19501;50.948;5.316;2023-02-20T15:10:50;9.80;99.90
33139;DHT22;19501;50.948;5.316;2023-02-20T15:13:22;9.70;99.90
33139;DHT22;19501;50.948;5.316;2023-02-20T15:16:03;9.70;99.90
33139;DHT22;19501;50.948;5.316;2023-02-20T15:18:41;9.60;99.90
33139;DHT22;19501;50.948;5.316;2023-02-20T15:21:07;9.50;99.90
33139;DHT22;19501;50.948;5.316;2023-02-20T15:23:36;9.60;99.90
33139;DHT22;19501;50.948;5.316;2023-02-20T15:29:22;9.50;99.90
33139;DHT22;19501;50.948;5.316;2023-02-20T15:32:23;9.60;99.90
33139;DHT22;19501;50.948;5.316;2023-02-20T15:34:52;9.60;99.90
33139;DHT22;19501;50.948;5.316;2023-02-20T15:37:29;9.60;99.90
33139;DHT22;19501;50.948;5.316;2023-02-20T15:40:23;9.60;99.90
33139;DHT22;19501;50.948;5.316;2023-02-20T15:42:50;9.60;99.90
33139;DHT22;19501;50.948;5.316;2023-02-20T15:45:25;9.60;99.90
33139;DHT22;19501;50.948;5.316;2023-02-20T15:47:51;9.60;99.90
33139;DHT22;19501;50.948;5.316;2023-02-20T15:50:17;9.60;99.90
33139;DHT22;19501;50.948;5.316;2023-02-20T15:52:44;9.70;99.90
33139;DHT22;19501;50.948;5.316;2023-02-20T15:55:14;9.70;99.90
33139;DHT22;19501;50.948;5.316;2023-02-20T15:57:43;9.60;99.90
33139;DHT22;19501;50.948;5.316;2023-02-20T16:00:30;9.70;99.90
33139;DHT22;19501;50.948;5.316;2023-02-20T16:02:57;9.60;99.90
33139;DHT22;19501;50.948;5.316;2023-02-20T16:05:24;9.60;99.90
33139;DHT22;19501;50.948;5.316;2023-02-20T16:07:50;9.70;99.90
33139;DHT22;19501;50.948;5.316;2023-02-20T16:10:19;9.80;99.90
33139;DHT22;19501;50.948;5.316;2023-02-20T16:12:46;9.80;99.90
33139;DHT22;19501;50.948;5.316;2023-02-20T16:15:19;9.80;99.90
33139;DHT22;19501;50.948;5.316;2023-02-20T16:17:50;9.80;99.90
33139;DHT22;19501;50.948;5.316;2023-02-20T16:20:18;9.80;99.90
33139;DHT22;19501;50.948;5.316;2023-02-20T16:22:44;9.80;99.90
33139;DHT22;19501;50.948;5.316;2023-02-20T16:25:11;9.70;99.90
33139;DHT22;19501;50.948;5.316;2023-02-20T16:27:37;9.70;99.90
33139;DHT22;19501;50.948;5.316;2023-02-20T16:30:03;9.60;99.90
33139;DHT22;19501;50.948;5.316;2023-02-20T16:32:29;9.60;99.90
33139;DHT22;19501;50.948;5.316;2023-02-20T16:34:57;9.70;99.90
33139;DHT22;19501;50.948;5.316;2023-02-20T16:37:23;9.70;99.90
33139;DHT22;19501;50.948;5.316;2023-02-20T16:39:50;9.60;99.90
33139;DHT22;19501;50.948;5.316;2023-02-20T16:44:47;9.60;99.90
33139;DHT22;19501;50.948;5.316;2023-02-20T16:47:17;9.60;99.90
33139;DHT22;19501;50.948;5.316;2023-02-20T16:49:43;9.60;99.90
33139;DHT22;19501;50.948;5.316;2023-02-20T16:54:48;9.50;99.90
33139;DHT22;19501;50.948;5.316;2023-02-20T16:57:15;9.70;99.90
33139;DHT22;19501;50.948;5.316;2023-02-20T16:59:41;9.60;99.90
33139;DHT22;19501;50.948;5.316;2023-02-20T17:02:14;9.60;99.90
33139;DHT22;19501;50.948;5.316;2023-02-20T17:04:40;9.60;99.90
33139;DHT22;19501;50.948;5.316;2023-02-20T17:07:05;9.60;99.90
33139;DHT22;19501;50.948;5.316;2023-02-20T17:09:35;9.50;99.90
33139;DHT22;19501;50.948;5.316;2023-02-20T17:12:03;9.50;99.90
33139;DHT22;19501;50.948;5.316;2023-02-20T17:14:29;9.40;99.90
33139;DHT22;19501;50.948;5.316;2023-02-20T17:16:58;9.50;99.90
33139;DHT22;19501;50.948;5.316;2023-02-20T17:19:23;9.50;99.90
33139;DHT22;19501;50.948;5.316;2023-02-20T17:21:50;9.40;99.90
33139;DHT22;19501;50.948;5.316;2023-02-20T17:24:16;9.40;99.90
33139;DHT22;19501;50.948;5.316;2023-02-20T17:26:43;9.40;99.90
33139;DHT22;19501;50.948;5.316;2023-02-20T17:29:10;9.40;99.90
33139;DHT22;19501;50.948;5.316;2023-02-20T17:31:35;9.20;99.90
33139;DHT22;19501;50.948;5.316;2023-02-20T17:34:01;9.30;99.90
33139;DHT22;19501;50.948;5.316;2023-02-20T17:36:29;9.20;99.90
33139;DHT22;19501;50.948;5.316;2023-02-20T17:38:55;9.30;99.90
33139;DHT22;19501;50.948;5.316;2023-02-20T17:41:22;9.30;99.90
33139;DHT22;19501;50.948;5.316;2023-02-20T17:43:50;9.40;99.90
33139;DHT22;19501;50.948;5.316;2023-02-20T17:46:17;9.40;99.90
33139;DHT22;19501;50.948;5.316;2023-02-20T17:48:45;9.40;99.90
33139;DHT22;19501;50.948;5.316;2023-02-20T17:51:19;9.30;99.90
33139;DHT22;19501;50.948;5.316;2023-02-20T17:53:45;9.30;99.90
33139;DHT22;19501;50.948;5.316;2023-02-20T17:56:16;9.30;99.90
33139;DHT22;19501;50.948;5.316;2023-02-20T17:58:43;9.30;99.90
33139;DHT22;19501;50.948;5.316;2023-02-20T18:01:09;9.20;99.90
33139;DHT22;19501;50.948;5.316;2023-02-20T18:03:35;9.20;99.90
33139;DHT22;19501;50.948;5.316;2023-02-20T18:06:01;9.20;99.90
33139;DHT22;19501;50.948;5.316;2023-02-20T18:08:27;9.20;99.90
33139;DHT22;19501;50.948;5.316;2023-02-20T18:10:52;9.20;99.90
33139;DHT22;19501;50.948;5.316;2023-02-20T18:13:18;9.20;99.90
33139;DHT22;19501;50.948;5.316;2023-02-20T18:15:44;9.00;99.90
33139;DHT22;19501;50.948;5.316;2023-02-20T18:18:11;9.10;99.90
33139;DHT22;19501;50.948;5.316;2023-02-20T18:20:37;9.20;99.90